Time;durP1;ratioP1;P1;durP2;ratioP2;P2;SDS_P1;SDS_P2;PMS_P1;PMS_P2;Temp;Humidity;BMP_temperature;BMP_pressure;BME280_temperature;BME280_humidity;BME280_pressure;Samples;Min_cycle;Max_cycle;Signal;HPM_P1;HPM_P2
2023/02/06 00:01:24;;;;;;;45.17;5.40;;;;;;;;;;5041234;28;20644;-76
2023/02/06 00:03:50;;;;;;;33.63;4.93;;;;;;;;;;5026857;28;20359;-74
2023/02/06 00:06:16;;;;;;;43.37;5.93;;;;;;;;;;5042525;28;20033;-76
2023/02/06 00:08:42;;;;;;;31.60;4.90;;;;;;;;;;5025711;28;20092;-76
2023/02/06 00:11:11;;;;;;;38.93;5.33;;;;;;;;;;5040086;28;20133;-75
2023/02/06 00:13:37;;;;;;;44.40;6.20;;;;;;;;;;5041775;28;20033;-76
2023/02/06 00:16:03;;;;;;;38.00;5.80;;;;;;;;;;5042542;28;20017;-74
2023/02/06 00:18:29;;;;;;;40.63;6.30;;;;;;;;;;5042193;28;20026;-76
2023/02/06 00:20:56;;;;;;;42.97;7.67;;;;;;;;;;5042274;28;20669;-75
2023/02/06 00:23:22;;;;;;;49.63;6.10;;;;;;;;;;5042775;28;20106;-76
2023/02/06 00:25:51;;;;;;;35.83;6.03;;;;;;;;;;5040741;28;20034;-76
2023/02/06 00:28:17;;;;;;;36.83;5.50;;;;;;;;;;5040636;28;20044;-76
2023/02/06 00:30:46;;;;;;;35.93;6.07;;;;;;;;;;5039967;28;20033;-76
2023/02/06 00:33:11;;;;;;;37.33;5.57;;;;;;;;;;5043192;28;20041;-75
2023/02/06 00:35:37;;;;;;;44.33;5.80;;;;;;;;;;5040042;28;20354;-76
2023/02/06 00:38:05;;;;;;;38.27;6.83;;;;;;;;;;5024010;28;20026;-76
2023/02/06 00:40:31;;;;;;;50.67;7.67;;;;;;;;;;5040464;28;20068;-75
2023/02/06 00:42:57;;;;;;;42.53;6.13;;;;;;;;;;5040944;28;20275;-76
2023/02/06 00:45:25;;;;;;;43.50;7.03;;;;;;;;;;5042007;28;20276;-76
2023/02/06 00:47:51;;;;;;;42.57;6.53;;;;;;;;;;5042808;28;20029;-75
2023/02/06 00:50:17;;;;;;;38.73;6.73;;;;;;;;;;5041977;28;20037;-75
2023/02/06 00:52:44;;;;;;;43.00;8.47;;;;;;;;;;5042781;28;20033;-76
2023/02/06 00:55:10;;;;;;;49.03;7.70;;;;;;;;;;5041578;28;20280;-76
2023/02/06 00:57:36;;;;;;;40.73;7.10;;;;;;;;;;5040298;28;20272;-75
2023/02/06 01:00:03;;;;;;;44.80;7.10;;;;;;;;;;5039895;28;20378;-76
2023/02/06 01:02:29;;;;;;;40.97;7.27;;;;;;;;;;5024987;28;20121;-76
2023/02/06 01:04:55;;;;;;;62.87;8.27;;;;;;;;;;5039814;28;20319;-76
2023/02/06 01:07:21;;;;;;;47.27;7.33;;;;;;;;;;5038502;28;20323;-76
2023/02/06 01:09:47;;;;;;;43.20;5.80;;;;;;;;;;5039614;28;20049;-77
2023/02/06 01:12:13;;;;;;;34.47;5.47;;;;;;;;;;5041721;28;20033;-76
2023/02/06 01:14:39;;;;;;;39.90;5.63;;;;;;;;;;5025491;28;20732;-77
2023/02/06 01:17:05;;;;;;;50.03;7.93;;;;;;;;;;5042264;28;20056;-76
2023/02/06 01:19:31;;;;;;;38.63;6.13;;;;;;;;;;5038155;28;20361;-75
2023/02/06 01:21:57;;;;;;;44.10;6.37;;;;;;;;;;5043668;28;20292;-76
2023/02/06 01:24:23;;;;;;;38.40;5.20;;;;;;;;;;5041644;28;20037;-76
2023/02/06 01:26:49;;;;;;;46.57;6.33;;;;;;;;;;5042948;28;20091;-76
2023/02/06 01:29:15;;;;;;;46.40;6.97;;;;;;;;;;5042537;28;21594;-77
2023/02/06 01:31:41;;;;;;;48.07;6.47;;;;;;;;;;5039527;28;20080;-75
2023/02/06 01:34:07;;;;;;;45.73;6.97;;;;;;;;;;5042165;28;20069;-76
2023/02/06 01:36:33;;;;;;;47.90;5.70;;;;;;;;;;5040767;28;20541;-75
2023/02/06 01:39:01;;;;;;;52.73;6.00;;;;;;;;;;5046037;28;20064;-74
2023/02/06 01:41:27;;;;;;;47.83;6.63;;;;;;;;;;5038649;28;20030;-75
2023/02/06 01:44:09;;;;;;;41.43;7.33;;;;;;;;;;5023738;28;20291;-76
2023/02/06 01:46:35;;;;;;;42.67;5.45;;;;;;;;;;5041435;28;20276;-75
2023/02/06 01:49:02;;;;;;;40.87;6.83;;;;;;;;;;5039499;28;20038;-77
2023/02/06 01:51:31;;;;;;;49.77;6.27;;;;;;;;;;5041913;28;20387;-75
2023/02/06 01:54:01;;;;;;;50.43;8.20;;;;;;;;;;5025391;28;20291;-77
2023/02/06 01:56:29;;;;;;;51.43;6.30;;;;;;;;;;5025554;28;20278;-75
2023/02/06 01:58:58;;;;;;;48.90;8.60;;;;;;;;;;5040126;28;20355;-75
2023/02/06 02:01:24;;;;;;;48.60;7.20;;;;;;;;;;5039868;28;20276;-75
2023/02/06 02:03:52;;;;;;;47.50;5.77;;;;;;;;;;5022697;28;20277;-76
2023/02/06 02:06:20;;;;;;;40.00;7.23;;;;;;;;;;5040628;28;20033;-74
2023/02/06 02:08:47;;;;;;;50.70;8.33;;;;;;;;;;5039667;28;20275;-75
2023/02/06 02:11:16;;;;;;;59.13;7.20;;;;;;;;;;5023960;28;20275;-76
2023/02/06 02:13:43;;;;;;;47.23;7.30;;;;;;;;;;5041202;28;20280;-76
2023/02/06 02:16:17;;;;;;;70.70;8.10;;;;;;;;;;5026421;28;20347;-76
2023/02/06 02:19:01;;;;;;;54.83;6.00;;;;;;;;;;5043119;28;20268;-75
2023/02/06 02:21:30;;;;;;;47.87;5.80;;;;;;;;;;5043728;28;20264;-76
2023/02/06 02:24:04;;;;;;;46.27;6.47;;;;;;;;;;5043153;28;20363;-76
2023/02/06 02:26:49;;;;;;;58.00;8.40;;;;;;;;;;5043161;28;20288;-75
2023/02/06 02:29:18;;;;;;;34.70;6.97;;;;;;;;;;5043452;28;20283;-76
2023/02/06 02:32:13;;;;;;;44.17;6.27;;;;;;;;;;5042582;28;20964;-74
2023/02/06 02:34:39;;;;;;;56.27;6.07;;;;;;;;;;5043466;28;20942;-76
2023/02/06 02:37:24;;;;;;;61.90;6.00;;;;;;;;;;5028765;28;20448;-76
2023/02/06 02:39:52;;;;;;;58.00;7.23;;;;;;;;;;5043650;28;20026;-75
2023/02/06 02:42:27;;;;;;;51.43;7.30;;;;;;;;;;5045191;28;20276;-76
2023/02/06 02:45:03;;;;;;;53.57;7.17;;;;;;;;;;5057917;28;20283;-77
2023/02/06 02:47:31;;;;;;;54.77;7.87;;;;;;;;;;5040492;28;20576;-76
2023/02/06 02:49:59;;;;;;;66.50;10.07;;;;;;;;;;5037015;28;20329;-76
2023/02/06 02:52:25;;;;;;;46.03;7.57;;;;;;;;;;5036919;28;20426;-77
2023/02/06 02:54:51;;;;;;;55.27;6.97;;;;;;;;;;5040571;28;20288;-76
2023/02/06 02:57:23;;;;;;;54.90;7.20;;;;;;;;;;5058936;28;20278;-76
2023/02/06 02:59:49;;;;;;;61.60;8.63;;;;;;;;;;5037236;28;20021;-77
2023/02/06 03:02:19;;;;;;;54.33;7.33;;;;;;;;;;5037571;28;20261;-76
2023/02/06 03:04:50;;;;;;;41.50;7.10;;;;;;;;;;5036610;28;20294;-76
2023/02/06 03:07:35;;;;;;;64.37;7.60;;;;;;;;;;5035960;28;20284;-76
2023/02/06 03:10:01;;;;;;;53.57;8.30;;;;;;;;;;5053630;28;20260;-76
2023/02/06 03:12:33;;;;;;;68.20;11.57;;;;;;;;;;5037556;28;20307;-75
2023/02/06 03:15:03;;;;;;;55.67;8.68;;;;;;;;;;5052681;28;20056;-75
2023/02/06 03:17:35;;;;;;;74.50;9.40;;;;;;;;;;5036431;28;20025;-76
2023/02/06 03:20:02;;;;;;;59.33;11.10;;;;;;;;;;5036153;28;20340;-76
2023/02/06 03:22:29;;;;;;;61.10;8.90;;;;;;;;;;5036496;28;20736;-77
2023/02/06 03:24:55;;;;;;;63.13;10.13;;;;;;;;;;5036372;28;20275;-76
2023/02/06 03:27:22;;;;;;;69.33;9.60;;;;;;;;;;5036523;28;20270;-77
2023/02/06 03:29:50;;;;;;;68.63;12.07;;;;;;;;;;5037506;28;20508;-76
2023/02/06 03:32:20;;;;;;;60.30;12.37;;;;;;;;;;5036837;28;20351;-76
2023/02/06 03:34:55;;;;;;;75.10;10.70;;;;;;;;;;5037757;28;20276;-75
2023/02/06 03:37:22;;;;;;;62.37;11.57;;;;;;;;;;5040424;28;20724;-75
2023/02/06 03:39:48;;;;;;;64.00;9.87;;;;;;;;;;5036542;28;20272;-75
2023/02/06 03:42:15;;;;;;;57.57;10.17;;;;;;;;;;5040507;28;20256;-77
2023/02/06 03:44:44;;;;;;;61.37;10.43;;;;;;;;;;5043321;28;20112;-77
2023/02/06 03:47:11;;;;;;;57.73;9.30;;;;;;;;;;5050189;28;20265;-76
2023/02/06 03:49:38;;;;;;;61.40;11.03;;;;;;;;;;5060774;28;20609;-76
2023/02/06 03:52:06;;;;;;;61.50;11.77;;;;;;;;;;5044272;28;20271;-76
2023/02/06 03:54:33;;;;;;;58.33;10.73;;;;;;;;;;5048292;28;20350;-76
2023/02/06 03:57:00;;;;;;;60.60;10.33;;;;;;;;;;5035687;28;20278;-75
2023/02/06 03:59:26;;;;;;;59.43;10.43;;;;;;;;;;5035659;28;20256;-76
2023/02/06 04:01:54;;;;;;;50.90;10.97;;;;;;;;;;5035954;28;20252;-76
2023/02/06 04:04:27;;;;;;;60.03;9.80;;;;;;;;;;5035559;28;20651;-75
2023/02/06 04:06:57;;;;;;;64.30;11.93;;;;;;;;;;5052389;28;20260;-76
2023/02/06 04:09:23;;;;;;;52.00;9.53;;;;;;;;;;5035395;28;20265;-77
2023/02/06 04:11:49;;;;;;;59.77;10.43;;;;;;;;;;5035470;28;20260;-77
2023/02/06 04:14:15;;;;;;;55.70;8.90;;;;;;;;;;5035636;28;20449;-76
2023/02/06 04:16:41;;;;;;;52.67;8.17;;;;;;;;;;5035294;28;20260;-76
2023/02/06 04:19:09;;;;;;;52.20;8.33;;;;;;;;;;5028944;28;20077;-76
2023/02/06 04:21:35;;;;;;;54.20;10.53;;;;;;;;;;5041005;28;20025;-77
2023/02/06 04:24:01;;;;;;;61.47;9.17;;;;;;;;;;5041896;28;20284;-76
2023/02/06 04:26:27;;;;;;;56.90;9.03;;;;;;;;;;5025872;28;20287;-75
2023/02/06 04:28:53;;;;;;;57.90;9.13;;;;;;;;;;5040672;28;20033;-76
2023/02/06 04:31:19;;;;;;;44.47;8.37;;;;;;;;;;5042616;28;20037;-75
2023/02/06 04:33:45;;;;;;;49.53;7.80;;;;;;;;;;5039066;28;20041;-76
2023/02/06 04:36:11;;;;;;;60.27;9.70;;;;;;;;;;5024453;28;20025;-76
2023/02/06 04:38:37;;;;;;;58.17;7.97;;;;;;;;;;5039861;28;20287;-76
2023/02/06 04:41:03;;;;;;;52.77;8.10;;;;;;;;;;5039754;28;20616;-76
2023/02/06 04:43:29;;;;;;;54.27;9.27;;;;;;;;;;5042307;28;20067;-76
2023/02/06 04:45:55;;;;;;;57.37;8.97;;;;;;;;;;5041682;28;20288;-75
2023/02/06 04:48:21;;;;;;;54.00;10.70;;;;;;;;;;5041812;28;20282;-75
2023/02/06 04:50:48;;;;;;;63.10;11.20;;;;;;;;;;5041289;28;20152;-76
2023/02/06 04:53:15;;;;;;;57.37;9.63;;;;;;;;;;5023674;28;20292;-76
2023/02/06 04:55:41;;;;;;;73.87;11.20;;;;;;;;;;5040561;28;20363;-75
2023/02/06 04:58:07;;;;;;;55.33;10.03;;;;;;;;;;5024323;28;20274;-76
2023/02/06 05:00:33;;;;;;;61.57;10.47;;;;;;;;;;5040251;28;20940;-76
2023/02/06 05:02:59;;;;;;;55.73;9.20;;;;;;;;;;5024810;28;20100;-75
2023/02/06 05:05:25;;;;;;;58.00;10.13;;;;;;;;;;5039991;28;20128;-76
2023/02/06 05:07:53;;;;;;;59.30;10.57;;;;;;;;;;5039248;28;20037;-75
2023/02/06 05:10:19;;;;;;;72.77;12.50;;;;;;;;;;5040579;28;20034;-76
2023/02/06 05:12:49;;;;;;;73.83;11.27;;;;;;;;;;5041050;28;20273;-76
2023/02/06 05:15:15;;;;;;;63.00;11.80;;;;;;;;;;5040763;28;20369;-76
2023/02/06 05:17:41;;;;;;;70.57;13.33;;;;;;;;;;5023252;28;20343;-76
2023/02/06 05:20:08;;;;;;;72.03;12.53;;;;;;;;;;5023465;28;20809;-75
2023/02/06 05:22:34;;;;;;;68.73;14.67;;;;;;;;;;5024341;28;20039;-76
2023/02/06 05:25:00;;;;;;;60.40;13.10;;;;;;;;;;5025918;28;20276;-76
2023/02/06 05:27:26;;;;;;;60.13;13.10;;;;;;;;;;5040646;28;20283;-76
2023/02/06 05:29:52;;;;;;;75.07;14.20;;;;;;;;;;5040508;28;20276;-76
2023/02/06 05:32:20;;;;;;;80.47;16.00;;;;;;;;;;5037595;28;20037;-75
2023/02/06 05:34:46;;;;;;;84.73;15.37;;;;;;;;;;5039957;28;20064;-75
2023/02/06 05:37:12;;;;;;;75.13;16.03;;;;;;;;;;5021921;28;20295;-76
2023/02/06 05:39:41;;;;;;;99.13;17.03;;;;;;;;;;5023616;28;20363;-76
2023/02/06 05:42:07;;;;;;;70.87;15.30;;;;;;;;;;5040194;28;20021;-73
2023/02/06 05:44:33;;;;;;;84.93;15.37;;;;;;;;;;5041522;28;20818;-76
2023/02/06 05:46:59;;;;;;;78.03;14.30;;;;;;;;;;5041363;28;20485;-76
2023/02/06 05:49:25;;;;;;;76.13;13.47;;;;;;;;;;5026108;28;20272;-76
2023/02/06 05:51:51;;;;;;;86.00;17.27;;;;;;;;;;5024155;28;20038;-76
2023/02/06 05:54:17;;;;;;;93.13;19.10;;;;;;;;;;5023167;28;20744;-76
2023/02/06 05:56:44;;;;;;;83.37;19.37;;;;;;;;;;5026129;28;20029;-76
2023/02/06 05:59:10;;;;;;;95.80;20.50;;;;;;;;;;5040134;28;20358;-76
2023/02/06 06:01:38;;;;;;;110.43;22.77;;;;;;;;;;5043913;28;20740;-76
2023/02/06 06:04:06;;;;;;;92.47;19.40;;;;;;;;;;5040083;28;20454;-75
2023/02/06 06:06:32;;;;;;;98.63;22.57;;;;;;;;;;5032909;28;20284;-75
2023/02/06 06:09:00;;;;;;;98.37;24.40;;;;;;;;;;5023730;28;20371;-75
2023/02/06 06:11:26;;;;;;;93.63;24.77;;;;;;;;;;5024932;28;20040;-75
2023/02/06 06:13:52;;;;;;;104.87;24.90;;;;;;;;;;5026733;28;20406;-76
2023/02/06 06:16:18;;;;;;;118.10;30.20;;;;;;;;;;5039016;28;20360;-76
2023/02/06 06:18:46;;;;;;;115.47;28.47;;;;;;;;;;5040962;28;20029;-76
2023/02/06 06:21:14;;;;;;;113.30;27.50;;;;;;;;;;5039720;28;20820;-76
2023/02/06 06:23:40;;;;;;;113.00;27.37;;;;;;;;;;5023332;28;20284;-76
2023/02/06 06:26:06;;;;;;;109.63;26.13;;;;;;;;;;5042377;28;20311;-75
2023/02/06 06:28:34;;;;;;;95.63;23.73;;;;;;;;;;5040272;28;20094;-77
2023/02/06 06:31:05;;;;;;;106.73;26.87;;;;;;;;;;5039421;28;20318;-75
2023/02/06 06:33:31;;;;;;;115.80;25.33;;;;;;;;;;5038730;28;20288;-76
2023/02/06 06:35:57;;;;;;;108.73;24.27;;;;;;;;;;5022840;28;20295;-76
2023/02/06 06:38:23;;;;;;;100.63;26.43;;;;;;;;;;5023705;28;20851;-77
2023/02/06 06:40:49;;;;;;;85.33;25.13;;;;;;;;;;5024542;28;20036;-76
2023/02/06 06:43:15;;;;;;;97.83;24.80;;;;;;;;;;5024910;28;20291;-74
2023/02/06 06:45:41;;;;;;;89.10;23.93;;;;;;;;;;5038646;28;20284;-77
2023/02/06 06:48:07;;;;;;;102.30;23.33;;;;;;;;;;5040283;28;21693;-77
2023/02/06 06:50:33;;;;;;;110.20;24.40;;;;;;;;;;5041690;28;20035;-75
2023/02/06 06:52:59;;;;;;;123.87;26.17;;;;;;;;;;5024440;28;20045;-77
2023/02/06 06:55:27;;;;;;;113.93;26.63;;;;;;;;;;5043020;28;20981;-76
2023/02/06 06:57:53;;;;;;;135.83;29.57;;;;;;;;;;5043485;28;20033;-77
2023/02/06 07:00:19;;;;;;;140.07;29.90;;;;;;;;;;5038350;28;20288;-77
2023/02/06 07:02:45;;;;;;;107.67;28.47;;;;;;;;;;5044169;28;20026;-77
2023/02/06 07:05:11;;;;;;;105.60;27.13;;;;;;;;;;5044680;28;20354;-78
2023/02/06 07:07:40;;;;;;;124.67;29.60;;;;;;;;;;5042914;28;20104;-77
2023/02/06 07:10:07;;;;;;;124.63;30.27;;;;;;;;;;5043300;28;20342;-77
2023/02/06 07:12:33;;;;;;;121.40;28.20;;;;;;;;;;5028271;28;20326;-76
2023/02/06 07:14:59;;;;;;;128.87;30.07;;;;;;;;;;5025965;28;20324;-76
2023/02/06 07:17:25;;;;;;;142.77;31.47;;;;;;;;;;5025875;28;20319;-76
2023/02/06 07:19:51;;;;;;;123.03;30.00;;;;;;;;;;5044309;28;20037;-78
2023/02/06 07:22:17;;;;;;;154.63;30.20;;;;;;;;;;5026726;28;20557;-78
2023/02/06 07:24:43;;;;;;;154.73;33.30;;;;;;;;;;5025441;28;20756;-77
2023/02/06 07:27:09;;;;;;;144.00;30.43;;;;;;;;;;5043171;28;20298;-76
2023/02/06 07:29:36;;;;;;;144.70;32.87;;;;;;;;;;5045021;28;20370;-77
2023/02/06 07:32:02;;;;;;;143.83;36.63;;;;;;;;;;5043082;28;20434;-76
2023/02/06 07:34:28;;;;;;;141.33;33.87;;;;;;;;;;5040146;28;20334;-76
2023/02/06 07:36:54;;;;;;;154.80;31.63;;;;;;;;;;5026609;28;20268;-78
2023/02/06 07:39:20;;;;;;;130.80;34.60;;;;;;;;;;5043638;28;20360;-75
2023/02/06 07:41:48;;;;;;;136.93;33.23;;;;;;;;;;5041504;28;20359;-76
2023/02/06 07:44:14;;;;;;;141.27;34.23;;;;;;;;;;5027728;28;20377;-76
2023/02/06 07:46:41;;;;;;;142.67;36.70;;;;;;;;;;5043793;28;20281;-77
2023/02/06 07:49:07;;;;;;;144.53;34.30;;;;;;;;;;5043915;28;20307;-76
2023/02/06 07:51:33;;;;;;;122.93;32.17;;;;;;;;;;5025492;28;20040;-77
2023/02/06 07:53:59;;;;;;;146.13;32.93;;;;;;;;;;5040147;28;20616;-76
2023/02/06 07:56:25;;;;;;;121.80;31.57;;;;;;;;;;5041541;28;20040;-77
2023/02/06 07:58:52;;;;;;;124.13;31.97;;;;;;;;;;5026677;28;20029;-77
2023/02/06 08:01:19;;;;;;;127.53;30.00;;;;;;;;;;5042886;28;20355;-77
2023/02/06 08:03:45;;;;;;;113.27;30.70;;;;;;;;;;5044420;28;20280;-78
2023/02/06 08:06:14;;;;;;;131.27;30.13;;;;;;;;;;5042634;28;20029;-77
2023/02/06 08:08:43;;;;;;;119.50;28.10;;;;;;;;;;5042359;28;20116;-77
2023/02/06 08:11:11;;;;;;;129.40;30.07;;;;;;;;;;5026982;28;20034;-78
2023/02/06 08:13:37;;;;;;;113.07;28.67;;;;;;;;;;5041187;28;20029;-77
2023/02/06 08:16:13;;;;;;;128.37;30.53;;;;;;;;;;5041990;28;20022;-78
2023/02/06 08:18:39;;;;;;;131.87;31.13;;;;;;;;;;5026354;28;20026;-76
2023/02/06 08:21:15;;;;;;;131.00;28.83;;;;;;;;;;5026253;28;20025;-76
2023/02/06 08:23:41;;;;;;;107.57;30.63;;;;;;;;;;5041643;28;20037;-76
2023/02/06 08:26:10;;;;;;;142.23;30.07;;;;;;;;;;5040761;28;20067;-77
2023/02/06 08:28:37;;;;;;;127.23;29.13;;;;;;;;;;5043849;28;20025;-77
2023/02/06 08:31:18;;;;;;;141.63;31.47;;;;;;;;;;5041929;28;20033;-77
2023/02/06 08:33:44;;;;;;;135.90;29.90;;;;;;;;;;5043874;28;20068;-77
2023/02/06 08:36:11;;;;;;;118.83;29.17;;;;;;;;;;5044035;28;20400;-77
2023/02/06 08:38:37;;;;;;;128.80;30.77;;;;;;;;;;5041497;28;20366;-76
2023/02/06 08:41:03;;;;;;;123.57;31.87;;;;;;;;;;5042883;28;21634;-76
2023/02/06 08:43:29;;;;;;;146.87;30.37;;;;;;;;;;5044748;28;20038;-76
2023/02/06 08:45:58;;;;;;;130.93;29.23;;;;;;;;;;5035445;28;20025;-78
2023/02/06 08:48:24;;;;;;;144.53;32.30;;;;;;;;;;5038750;28;20029;-77
2023/02/06 08:50:50;;;;;;;110.60;29.33;;;;;;;;;;5034673;28;20049;-77
2023/02/06 08:53:16;;;;;;;129.53;31.47;;;;;;;;;;5035053;28;20076;-78
2023/02/06 08:55:42;;;;;;;124.97;28.57;;;;;;;;;;5034532;28;20602;-78
2023/02/06 08:58:08;;;;;;;90.90;25.73;;;;;;;;;;5037061;28;20083;-78
2023/02/06 09:00:35;;;;;;;88.17;26.87;;;;;;;;;;5034466;28;20124;-77
2023/02/06 09:03:01;;;;;;;94.90;29.90;;;;;;;;;;5038012;28;20079;-77
2023/02/06 09:05:27;;;;;;;85.00;25.90;;;;;;;;;;5037196;28;20033;-79
2023/02/06 09:07:53;;;;;;;67.10;24.70;;;;;;;;;;5043134;28;20425;-78
2023/02/06 09:10:19;;;;;;;75.60;22.70;;;;;;;;;;5052775;28;20048;-78
2023/02/06 09:12:45;;;;;;;90.57;23.40;;;;;;;;;;5055262;28;20021;-78
2023/02/06 09:15:11;;;;;;;78.33;23.33;;;;;;;;;;5036749;28;20033;-78
2023/02/06 09:17:37;;;;;;;80.67;25.90;;;;;;;;;;5038931;28;20079;-77
2023/02/06 09:20:04;;;;;;;88.53;27.07;;;;;;;;;;5052131;28;20473;-77
2023/02/06 09:22:30;;;;;;;76.20;23.07;;;;;;;;;;5042780;28;20030;-77
2023/02/06 09:24:56;;;;;;;71.67;22.83;;;;;;;;;;5045785;28;20410;-76
2023/02/06 09:27:22;;;;;;;65.67;24.50;;;;;;;;;;5037137;28;20065;-77
2023/02/06 09:29:48;;;;;;;80.97;24.73;;;;;;;;;;5034211;28;20063;-77
2023/02/06 09:32:14;;;;;;;63.13;22.83;;;;;;;;;;5034042;28;20036;-78
2023/02/06 09:34:40;;;;;;;59.27;17.53;;;;;;;;;;5033761;28;20099;-78
2023/02/06 09:37:08;;;;;;;51.90;18.60;;;;;;;;;;5034726;28;20025;-78
2023/02/06 09:39:34;;;;;;;75.67;24.37;;;;;;;;;;5050861;28;20528;-78
2023/02/06 09:42:14;;;;;;;60.67;21.50;;;;;;;;;;5034854;28;20030;-78
2023/02/06 09:44:47;;;;;;;69.93;22.80;;;;;;;;;;5034058;28;20487;-77
2023/02/06 09:47:28;;;;;;;66.00;22.93;;;;;;;;;;5034030;28;20033;-79
2023/02/06 09:49:57;;;;;;;58.00;20.73;;;;;;;;;;5050453;28;20366;-77
2023/02/06 09:52:29;;;;;;;55.30;20.27;;;;;;;;;;5042407;28;20442;-78
2023/02/06 09:55:22;;;;;;;51.45;17.45;;;;;;;;;;5042268;28;20025;-78
2023/02/06 09:58:06;;;;;;;44.72;15.73;;;;;;;;;;5025936;28;20449;-78
2023/02/06 10:00:40;;;;;;;43.37;16.47;;;;;;;;;;5034094;28;20036;-78
2023/02/06 10:03:18;;;;;;;62.77;19.00;;;;;;;;;;5033758;28;20021;-78
2023/02/06 10:06:07;;;;;;;45.33;18.17;;;;;;;;;;5050627;28;20140;-78
2023/02/06 10:08:40;;;;;;;45.37;14.23;;;;;;;;;;5044511;28;20025;-78
2023/02/06 10:11:16;;;;;;;45.87;14.83;;;;;;;;;;5034812;28;20097;-77
2023/02/06 10:13:49;;;;;;;47.03;15.47;;;;;;;;;;5033775;28;20135;-77
2023/02/06 10:16:15;;;;;;;41.85;14.52;;;;;;;;;;5044028;28;20108;-77
2023/02/06 10:18:47;;;;;;;39.27;14.03;;;;;;;;;;5036357;28;20156;-77
2023/02/06 10:21:26;;;;;;;35.33;14.25;;;;;;;;;;5040682;28;20017;-77
2023/02/06 10:23:57;;;;;;;39.03;13.57;;;;;;;;;;5040811;28;20025;-76
2023/02/06 10:26:23;;;;;;;35.63;14.10;;;;;;;;;;5040283;28;21043;-77
2023/02/06 10:28:55;;;;;;;43.90;16.17;;;;;;;;;;5024628;28;20583;-77
2023/02/06 10:31:21;;;;;;;42.90;15.07;;;;;;;;;;5040226;28;20041;-76
2023/02/06 10:33:54;;;;;;;35.53;15.93;;;;;;;;;;5023776;28;20040;-77
2023/02/06 10:36:32;;;;;;;49.10;17.00;;;;;;;;;;5043391;28;20069;-77
2023/02/06 10:39:17;;;;;;;43.93;16.27;;;;;;;;;;5027708;28;20063;-77
2023/02/06 10:41:55;;;;;;;41.30;16.30;;;;;;;;;;5028840;28;20079;-76
2023/02/06 10:44:21;;;;;;;44.10;15.73;;;;;;;;;;5026370;28;20064;-77
2023/02/06 10:46:49;;;;;;;39.27;15.87;;;;;;;;;;5028004;28;20459;-76
2023/02/06 10:49:18;;;;;;;48.67;16.10;;;;;;;;;;5026120;28;20088;-77
2023/02/06 10:51:47;;;;;;;53.07;18.00;;;;;;;;;;5028607;28;20108;-76
2023/02/06 10:54:32;;;;;;;42.63;18.20;;;;;;;;;;5025293;28;20601;-76
2023/02/06 10:56:59;;;;;;;35.27;15.93;;;;;;;;;;5045697;28;20132;-77
2023/02/06 10:59:33;;;;;;;39.23;14.80;;;;;;;;;;5045515;28;20052;-76
2023/02/06 11:02:14;;;;;;;42.20;14.97;;;;;;;;;;5028290;28;20080;-76
2023/02/06 11:04:43;;;;;;;39.33;14.63;;;;;;;;;;5025989;28;20038;-76
2023/02/06 11:07:23;;;;;;;42.90;14.80;;;;;;;;;;5045354;28;20124;-77
2023/02/06 11:09:52;;;;;;;45.33;16.50;;;;;;;;;;5043832;28;20119;-78
2023/02/06 11:12:23;;;;;;;54.50;15.87;;;;;;;;;;5044828;28;20037;-77
2023/02/06 11:14:50;;;;;;;36.10;15.83;;;;;;;;;;5044619;28;20091;-77
2023/02/06 11:17:18;;;;;;;42.13;15.87;;;;;;;;;;5047917;28;20118;-76
2023/02/06 11:19:44;;;;;;;46.83;16.43;;;;;;;;;;5026851;28;20030;-76
2023/02/06 11:22:11;;;;;;;44.87;16.23;;;;;;;;;;5044875;28;20021;-76
2023/02/06 11:24:38;;;;;;;50.53;17.47;;;;;;;;;;5043153;28;21704;-76
2023/02/06 11:27:12;;;;;;;50.57;17.80;;;;;;;;;;5026943;28;20092;-76
2023/02/06 11:29:43;;;;;;;39.53;17.10;;;;;;;;;;5043397;28;20038;-77
2023/02/06 11:32:24;;;;;;;40.30;18.40;;;;;;;;;;5042716;28;20129;-77
2023/02/06 11:34:55;;;;;;;45.30;17.27;;;;;;;;;;5043340;28;21706;-77
2023/02/06 11:37:29;;;;;;;50.07;20.97;;;;;;;;;;5043094;28;20464;-76
2023/02/06 11:40:15;;;;;;;49.77;21.47;;;;;;;;;;5042127;28;20029;-77
2023/02/06 11:42:41;;;;;;;48.70;19.20;;;;;;;;;;5030040;28;20029;-76
2023/02/06 11:45:27;;;;;;;59.27;24.20;;;;;;;;;;5045581;28;20056;-75
2023/02/06 11:47:53;;;;;;;57.03;26.03;;;;;;;;;;5028624;28;20075;-77
2023/02/06 11:50:24;;;;;;;64.20;28.20;;;;;;;;;;5043118;28;20465;-76
2023/02/06 11:52:55;;;;;;;64.27;26.30;;;;;;;;;;5044854;28;20038;-76
2023/02/06 11:55:21;;;;;;;51.83;24.57;;;;;;;;;;5044115;28;20056;-77
2023/02/06 11:58:01;;;;;;;54.40;24.53;;;;;;;;;;5028626;28;20166;-76
2023/02/06 12:00:27;;;;;;;46.23;21.90;;;;;;;;;;5023988;28;20030;-77
2023/02/06 12:02:54;;;;;;;47.13;18.63;;;;;;;;;;5043024;28;20025;-75
2023/02/06 12:05:21;;;;;;;44.77;19.57;;;;;;;;;;5042689;28;20029;-75
2023/02/06 12:08:01;;;;;;;41.37;19.30;;;;;;;;;;5041746;28;20038;-76
2023/02/06 12:10:28;;;;;;;46.10;19.67;;;;;;;;;;5043011;28;20030;-76
2023/02/06 12:13:00;;;;;;;43.73;18.50;;;;;;;;;;5026288;28;21738;-77
2023/02/06 12:15:34;;;;;;;46.00;21.35;;;;;;;;;;5024544;28;20028;-76
2023/02/06 12:18:03;;;;;;;55.93;22.33;;;;;;;;;;5041245;28;20091;-77
2023/02/06 12:20:33;;;;;;;51.93;23.17;;;;;;;;;;5040475;28;20057;-76
2023/02/06 12:23:04;;;;;;;44.73;18.03;;;;;;;;;;5026920;28;20021;-77
2023/02/06 12:25:35;;;;;;;44.07;19.50;;;;;;;;;;5042373;28;20040;-77
2023/02/06 12:28:16;;;;;;;50.20;19.43;;;;;;;;;;5042616;28;20135;-76
2023/02/06 12:30:45;;;;;;;40.33;17.27;;;;;;;;;;5041125;28;20022;-76
2023/02/06 12:33:14;;;;;;;46.87;19.90;;;;;;;;;;5025793;28;20037;-77
2023/02/06 12:35:42;;;;;;;44.80;18.23;;;;;;;;;;5041264;28;20055;-77
2023/02/06 12:38:15;;;;;;;32.40;13.33;;;;;;;;;;5040686;28;20026;-75
2023/02/06 12:40:40;;;;;;;;;;;;;;;;;;5040198;28;20044;-77
2023/02/06 12:43:08;;;;;;;44.40;18.03;;;;;;;;;;5025810;28;20393;-76
2023/02/06 12:45:40;;;;;;;38.37;17.13;;;;;;;;;;5041861;28;20037;-75
2023/02/06 12:48:21;;;;;;;41.83;15.18;;;;;;;;;;5029565;28;20025;-77
2023/02/06 12:51:09;;;;;;;40.30;15.87;;;;;;;;;;5024001;28;20025;-76
2023/02/06 12:53:41;;;;;;;42.47;15.37;;;;;;;;;;5042658;28;20037;-76
2023/02/06 12:56:14;;;;;;;35.77;13.67;;;;;;;;;;5043099;28;20028;-77
2023/02/06 12:58:40;;;;;;;42.80;15.50;;;;;;;;;;5043258;28;20442;-77
2023/02/06 13:01:24;;;;;;;44.33;15.13;;;;;;;;;;5023804;28;20095;-76
2023/02/06 13:03:55;;;;;;;46.60;16.57;;;;;;;;;;5043175;28;20716;-77
2023/02/06 13:06:29;;;;;;;46.63;14.70;;;;;;;;;;5027154;28;20052;-77
2023/02/06 13:08:58;;;;;;;43.13;15.30;;;;;;;;;;5041212;28;20101;-77
2023/02/06 13:11:30;;;;;;;37.63;13.97;;;;;;;;;;5025356;28;20037;-77
2023/02/06 13:14:04;;;;;;;41.17;14.00;;;;;;;;;;5043952;28;21639;-78
2023/02/06 13:16:43;;;;;;;35.67;13.53;;;;;;;;;;5042460;28;20434;-76
2023/02/06 13:19:29;;;;;;;39.27;13.73;;;;;;;;;;5041748;28;20025;-77
2023/02/06 13:22:11;;;;;;;34.30;13.27;;;;;;;;;;5025718;28;20117;-76
2023/02/06 13:24:38;;;;;;;39.95;12.77;;;;;;;;;;5043663;28;20033;-77
2023/02/06 13:27:07;;;;;;;36.80;13.97;;;;;;;;;;5024245;28;20061;-77
2023/02/06 13:29:37;;;;;;;36.63;12.80;;;;;;;;;;5044026;28;20044;-78
2023/02/06 13:32:10;;;;;;;38.07;14.07;;;;;;;;;;5043266;28;20110;-77
2023/02/06 13:34:46;;;;;;;36.77;12.93;;;;;;;;;;5023495;28;20069;-77
2023/02/06 13:37:31;;;;;;;36.47;11.93;;;;;;;;;;5041172;28;20053;-76
2023/02/06 13:40:16;;;;;;;40.53;13.93;;;;;;;;;;5024533;28;20024;-77
2023/02/06 13:42:44;;;;;;;41.13;13.60;;;;;;;;;;5026524;28;20125;-76
2023/02/06 13:45:16;;;;;;;39.30;12.23;;;;;;;;;;5040284;28;20121;-77
2023/02/06 13:48:01;;;;;;;38.50;13.80;;;;;;;;;;5024064;28;20061;-78
2023/02/06 13:50:30;;;;;;;40.60;13.10;;;;;;;;;;5024531;28;20041;-76
2023/02/06 13:52:56;;;;;;;36.73;12.90;;;;;;;;;;5023639;28;20041;-75
2023/02/06 13:55:25;;;;;;;40.73;13.73;;;;;;;;;;5037834;28;20414;-77
2023/02/06 13:58:15;;;;;;;45.60;14.40;;;;;;;;;;5040485;28;20478;-76
2023/02/06 14:00:43;;;;;;;50.70;14.93;;;;;;;;;;5022139;28;20052;-76
2023/02/06 14:03:27;;;;;;;42.93;14.77;;;;;;;;;;5042522;28;20037;-77
2023/02/06 14:05:53;;;;;;;51.03;14.50;;;;;;;;;;5040420;28;20108;-76
2023/02/06 14:08:28;;;;;;;43.37;13.57;;;;;;;;;;5040600;28;20133;-77
2023/02/06 14:11:08;;;;;;;42.73;13.73;;;;;;;;;;5039629;28;20064;-77
2023/02/06 14:13:47;;;;;;;45.37;14.30;;;;;;;;;;5029458;28;20029;-77
2023/02/06 14:16:31;;;;;;;37.90;12.03;;;;;;;;;;5026355;28;20116;-76
2023/02/06 14:18:57;;;;;;;41.10;12.90;;;;;;;;;;5027624;28;20029;-75
2023/02/06 14:21:37;;;;;;;44.87;12.50;;;;;;;;;;5025353;28;21678;-75
2023/02/06 14:24:03;;;;;;;52.90;13.20;;;;;;;;;;5042658;28;20033;-77
2023/02/06 14:26:38;;;;;;;40.10;12.23;;;;;;;;;;5042330;28;20051;-77
2023/02/06 14:29:23;;;;;;;35.57;11.57;;;;;;;;;;5027627;28;20038;-78
2023/02/06 14:31:57;;;;;;;26.03;9.97;;;;;;;;;;5044034;28;20484;-77